DIPPU LSZR-LSZR
Flight info
| Callsign | DIPPU |
|---|---|
| Flight time | 0h 19m |
| Altitude | 13500 |
| Route | VFR |
| Aircraft | AEST/L-S/S |
Departure
| Time | 2026-04-10 19:45 |
|---|---|
| Airport | Sankt Gallen Altenrhein Airport (LSZR) |
Arrival
| Time | 2026-04-10 20:04 |
|---|---|
| Airport | Sankt Gallen Altenrhein Airport (LSZR) |
| Time | Latitude | Longitude | Altitude | Speed | Heading |
|---|---|---|---|---|---|
| 2026-04-10 19:34 | 47.48763 | 9.55338 | 1310 ft | 0 kts | 242° |
| 2026-04-10 19:36 | 47.48762 | 9.55338 | 1310 ft | 0 kts | 242° |
| 2026-04-10 19:37 | 47.48765 | 9.55344 | 1310 ft | 2 kts | 242° |
| 2026-04-10 19:37 | 47.48767 | 9.55351 | 1310 ft | 0 kts | 242° |
| 2026-04-10 19:37 | 47.48767 | 9.55350 | 1310 ft | 1 kts | 238° |
| 2026-04-10 19:37 | 47.48758 | 9.55348 | 1310 ft | 0 kts | 154° |
| 2026-04-10 19:38 | 47.48757 | 9.55349 | 1310 ft | 1 kts | 148° |
| 2026-04-10 19:38 | 47.48736 | 9.55367 | 1310 ft | 6 kts | 135° |
| 2026-04-10 19:38 | 47.48730 | 9.55401 | 1310 ft | 1 kts | 87° |
| 2026-04-10 19:38 | 47.48725 | 9.55439 | 1310 ft | 6 kts | 102° |
| 2026-04-10 19:39 | 47.48715 | 9.55526 | 1310 ft | 11 kts | 97° |
| 2026-04-10 19:39 | 47.48703 | 9.55653 | 1310 ft | 14 kts | 99° |
| 2026-04-10 19:39 | 47.48686 | 9.55809 | 1310 ft | 16 kts | 99° |
| 2026-04-10 19:39 | 47.48669 | 9.55970 | 1310 ft | 16 kts | 101° |
| 2026-04-10 19:40 | 47.48649 | 9.56126 | 1310 ft | 15 kts | 99° |
| 2026-04-10 19:40 | 47.48637 | 9.56285 | 1310 ft | 16 kts | 99° |
| 2026-04-10 19:40 | 47.48616 | 9.56455 | 1310 ft | 17 kts | 99° |
| 2026-04-10 19:40 | 47.48598 | 9.56627 | 1310 ft | 17 kts | 98° |
| 2026-04-10 19:41 | 47.48582 | 9.56801 | 1310 ft | 17 kts | 97° |
| 2026-04-10 19:41 | 47.48565 | 9.56974 | 1310 ft | 16 kts | 98° |
| 2026-04-10 19:41 | 47.48511 | 9.57083 | 1310 ft | 14 kts | 187° |
| 2026-04-10 19:41 | 47.48478 | 9.57076 | 1310 ft | 0 kts | 187° |
| 2026-04-10 19:43 | 47.48473 | 9.57075 | 1310 ft | 8 kts | 187° |
| 2026-04-10 19:43 | 47.48406 | 9.57061 | 1312 ft | 8 kts | 201° |
| 2026-04-10 19:43 | 47.48432 | 9.56695 | 1309 ft | 72 kts | 278° |
| 2026-04-10 19:44 | 47.48497 | 9.56091 | 1326 ft | 99 kts | 279° |
| 2026-04-10 19:44 | 47.48624 | 9.55024 | 1456 ft | 109 kts | 279° |
| 2026-04-10 19:44 | 47.48759 | 9.53942 | 1734 ft | 107 kts | 282° |
| 2026-04-10 19:44 | 47.48997 | 9.52856 | 1893 ft | 115 kts | 305° |
| 2026-04-10 19:45 | 47.49646 | 9.52236 | 2127 ft | 113 kts | 353° |
| 2026-04-10 19:45 | 47.50432 | 9.52410 | 2207 ft | 117 kts | 31° |
| 2026-04-10 19:45 | 47.50847 | 9.53359 | 2235 ft | 115 kts | 87° |
| 2026-04-10 19:45 | 47.50753 | 9.54533 | 2219 ft | 119 kts | 98° |
| 2026-04-10 19:46 | 47.50604 | 9.55765 | 2216 ft | 123 kts | 101° |
| 2026-04-10 19:46 | 47.50406 | 9.57011 | 2219 ft | 126 kts | 105° |
| 2026-04-10 19:46 | 47.50198 | 9.58285 | 2239 ft | 128 kts | 108° |
| 2026-04-10 19:46 | 47.49664 | 9.59268 | 2262 ft | 127 kts | 149° |
| 2026-04-10 19:47 | 47.48807 | 9.59501 | 2247 ft | 131 kts | 195° |
| 2026-04-10 19:47 | 47.48180 | 9.58540 | 2065 ft | 148 kts | 263° |
| 2026-04-10 19:47 | 47.48410 | 9.56804 | 1383 ft | 195 kts | 279° |
| 2026-04-10 19:47 | 47.48630 | 9.54816 | 1396 ft | 189 kts | 278° |
| 2026-04-10 19:48 | 47.48848 | 9.53056 | 1974 ft | 161 kts | 285° |
| 2026-04-10 19:48 | 47.49511 | 9.52033 | 2535 ft | 135 kts | 344° |
| 2026-04-10 19:48 | 47.50423 | 9.52250 | 2577 ft | 138 kts | 41° |
| 2026-04-10 19:48 | 47.50794 | 9.53490 | 2576 ft | 135 kts | 92° |
| 2026-04-10 19:49 | 47.50686 | 9.54911 | 2460 ft | 142 kts | 98° |
| 2026-04-10 19:49 | 47.50516 | 9.56317 | 2391 ft | 130 kts | 99° |
| 2026-04-10 19:49 | 47.50368 | 9.57552 | 2257 ft | 119 kts | 100° |
| 2026-04-10 19:49 | 47.50115 | 9.58639 | 2125 ft | 107 kts | 125° |
| 2026-04-10 19:50 | 47.49531 | 9.59281 | 1963 ft | 106 kts | 162° |
| 2026-04-10 19:50 | 47.48809 | 9.59237 | 1805 ft | 105 kts | 203° |
| 2026-04-10 19:50 | 47.48368 | 9.58420 | 1615 ft | 107 kts | 257° |
| 2026-04-10 19:50 | 47.48367 | 9.57357 | 1378 ft | 101 kts | 277° |
| 2026-04-10 19:51 | 47.48461 | 9.56490 | 1309 ft | 65 kts | 276° |
| 2026-04-10 19:51 | 47.48525 | 9.55788 | 1320 ft | 87 kts | 279° |
| 2026-04-10 19:51 | 47.48646 | 9.54787 | 1409 ft | 110 kts | 277° |
| 2026-04-10 19:51 | 47.48739 | 9.53688 | 1760 ft | 106 kts | 278° |
| 2026-04-10 19:52 | 47.48973 | 9.52630 | 1947 ft | 114 kts | 312° |
| 2026-04-10 19:52 | 47.49683 | 9.52199 | 2137 ft | 114 kts | 9° |
| 2026-04-10 19:52 | 47.50475 | 9.52529 | 2184 ft | 124 kts | 26° |
| 2026-04-10 19:52 | 47.50960 | 9.53521 | 2271 ft | 127 kts | 89° |
| 2026-04-10 19:53 | 47.50802 | 9.54811 | 2401 ft | 130 kts | 97° |
| 2026-04-10 19:53 | 47.50667 | 9.56112 | 2378 ft | 122 kts | 100° |
| 2026-04-10 19:53 | 47.50516 | 9.57302 | 2339 ft | 115 kts | 101° |
| 2026-04-10 19:53 | 47.50331 | 9.58448 | 2272 ft | 113 kts | 104° |
| 2026-04-10 19:54 | 47.49973 | 9.59446 | 2237 ft | 110 kts | 142° |
| 2026-04-10 19:54 | 47.49232 | 9.59656 | 2144 ft | 114 kts | 186° |
| 2026-04-10 19:54 | 47.48457 | 9.59365 | 2014 ft | 116 kts | 218° |
| 2026-04-10 19:54 | 47.48233 | 9.58284 | 1601 ft | 120 kts | 281° |
| 2026-04-10 19:55 | 47.48393 | 9.57137 | 1356 ft | 99 kts | 278° |
| 2026-04-10 19:55 | 47.48472 | 9.56353 | 1310 ft | 59 kts | 277° |
| 2026-04-10 19:55 | 47.48543 | 9.55635 | 1319 ft | 91 kts | 279° |
| 2026-04-10 19:55 | 47.48664 | 9.54619 | 1445 ft | 106 kts | 279° |
| 2026-04-10 19:56 | 47.48812 | 9.53544 | 1572 ft | 107 kts | 281° |
| 2026-04-10 19:56 | 47.48989 | 9.52455 | 1611 ft | 111 kts | 289° |
| 2026-04-10 19:56 | 47.49469 | 9.51649 | 1714 ft | 104 kts | 332° |
| 2026-04-10 19:56 | 47.50181 | 9.51484 | 1760 ft | 105 kts | 11° |
| 2026-04-10 19:57 | 47.50802 | 9.52002 | 1799 ft | 104 kts | 51° |
| 2026-04-10 19:57 | 47.51024 | 9.52992 | 1805 ft | 106 kts | 92° |
| 2026-04-10 19:57 | 47.50959 | 9.54096 | 1824 ft | 109 kts | 95° |
| 2026-04-10 19:57 | 47.50865 | 9.55220 | 1815 ft | 113 kts | 96° |
| 2026-04-10 19:58 | 47.50734 | 9.56389 | 1818 ft | 116 kts | 100° |
| 2026-04-10 19:58 | 47.50564 | 9.57555 | 1812 ft | 115 kts | 103° |
| 2026-04-10 19:58 | 47.50333 | 9.58685 | 1803 ft | 114 kts | 119° |
| 2026-04-10 19:58 | 47.49734 | 9.59410 | 1787 ft | 113 kts | 160° |
| 2026-04-10 19:59 | 47.48966 | 9.59476 | 1787 ft | 113 kts | 197° |
| 2026-04-10 19:59 | 47.48355 | 9.58762 | 1721 ft | 116 kts | 243° |
| 2026-04-10 19:59 | 47.48299 | 9.57657 | 1446 ft | 102 kts | 284° |
| 2026-04-10 19:59 | 47.48436 | 9.56679 | 1312 ft | 94 kts | 280° |
| 2026-04-10 20:00 | 47.48521 | 9.55868 | 1314 ft | 87 kts | 279° |
| 2026-04-10 20:00 | 47.48631 | 9.54834 | 1371 ft | 110 kts | 280° |
| 2026-04-10 20:00 | 47.48759 | 9.53698 | 1758 ft | 106 kts | 283° |
| 2026-04-10 20:00 | 47.49127 | 9.52800 | 2180 ft | 109 kts | 324° |
| 2026-04-10 20:01 | 47.49860 | 9.52567 | 2391 ft | 117 kts | 20° |
| 2026-04-10 20:01 | 47.50737 | 9.53062 | 2290 ft | 147 kts | 40° |
| 2026-04-10 20:01 | 47.51031 | 9.54488 | 2255 ft | 165 kts | 96° |
| 2026-04-10 20:01 | 47.50888 | 9.56282 | 2176 ft | 181 kts | 98° |
| 2026-04-10 20:02 | 47.50667 | 9.58049 | 2249 ft | 168 kts | 103° |
| 2026-04-10 20:02 | 47.50338 | 9.59637 | 2347 ft | 155 kts | 117° |
| 2026-04-10 20:02 | 47.49554 | 9.60512 | 2447 ft | 143 kts | 170° |
| 2026-04-10 20:02 | 47.48635 | 9.60136 | 2319 ft | 136 kts | 220° |
| 2026-04-10 20:03 | 47.48142 | 9.59040 | 2037 ft | 120 kts | 253° |
| 2026-04-10 20:03 | 47.48260 | 9.57843 | 1550 ft | 120 kts | 287° |
| 2026-04-10 20:03 | 47.48428 | 9.56740 | 1314 ft | 89 kts | 280° |
| 2026-04-10 20:03 | 47.48504 | 9.56021 | 1312 ft | 57 kts | 279° |
| 2026-04-10 20:04 | 47.48558 | 9.55529 | 1313 ft | 42 kts | 279° |
| 2026-04-10 20:04 | 47.48618 | 9.55323 | 1311 ft | 18 kts | 359° |
| 2026-04-10 20:04 | 47.48685 | 9.55199 | 1310 ft | 16 kts | 294° |
| 2026-04-10 20:04 | 47.48704 | 9.55147 | 1310 ft | 1 kts | 330° |
| 2026-04-10 20:05 | 47.48715 | 9.55156 | 1310 ft | 3 kts | 56° |
| 2026-04-10 20:05 | 47.48748 | 9.55175 | 1310 ft | 7 kts | 40° |
| 2026-04-10 20:05 | 47.48745 | 9.55257 | 1310 ft | 9 kts | 95° |
| 2026-04-10 20:05 | 47.48743 | 9.55280 | 1310 ft | 0 kts | 98° |